sensor_id;sensor_type;location;lat;lon;timestamp;pressure;altitude;pressure_sealevel;temperature;humidity
2681;BME280;1350;42.134;24.708;2024-02-26T00:00:55;99035.06;;;10.63;100.00
2681;BME280;1350;42.134;24.708;2024-02-26T00:03:22;99040.66;;;10.58;100.00
2681;BME280;1350;42.134;24.708;2024-02-26T00:05:49;99034.09;;;10.36;100.00
2681;BME280;1350;42.134;24.708;2024-02-26T00:08:15;99039.31;;;10.37;100.00
2681;BME280;1350;42.134;24.708;2024-02-26T00:10:44;99050.84;;;10.50;100.00
2681;BME280;1350;42.134;24.708;2024-02-26T00:13:11;99038.47;;;10.51;100.00
2681;BME280;1350;42.134;24.708;2024-02-26T00:15:38;99027.84;;;10.37;100.00
2681;BME280;1350;42.134;24.708;2024-02-26T00:18:05;99030.63;;;10.49;100.00
2681;BME280;1350;42.134;24.708;2024-02-26T00:20:32;99026.19;;;10.50;100.00
2681;BME280;1350;42.134;24.708;2024-02-26T00:22:59;99007.41;;;10.39;100.00
2681;BME280;1350;42.134;24.708;2024-02-26T00:25:26;99016.31;;;10.38;100.00
2681;BME280;1350;42.134;24.708;2024-02-26T00:27:54;99041.84;;;10.24;100.00
2681;BME280;1350;42.134;24.708;2024-02-26T00:30:21;99052.38;;;10.10;100.00
2681;BME280;1350;42.134;24.708;2024-02-26T00:32:48;99038.78;;;10.16;100.00
2681;BME280;1350;42.134;24.708;2024-02-26T00:35:15;99033.88;;;10.24;100.00
2681;BME280;1350;42.134;24.708;2024-02-26T00:37:45;99024.13;;;10.11;100.00
2681;BME280;1350;42.134;24.708;2024-02-26T00:40:13;99023.56;;;10.20;100.00
2681;BME280;1350;42.134;24.708;2024-02-26T00:42:40;99060.38;;;10.24;100.00
2681;BME280;1350;42.134;24.708;2024-02-26T00:45:12;99035.75;;;10.22;100.00
2681;BME280;1350;42.134;24.708;2024-02-26T00:47:39;99005.41;;;10.28;100.00
2681;BME280;1350;42.134;24.708;2024-02-26T00:50:07;98978.19;;;10.40;100.00
2681;BME280;1350;42.134;24.708;2024-02-26T00:52:34;98947.34;;;10.39;100.00
2681;BME280;1350;42.134;24.708;2024-02-26T00:55:02;98946.38;;;10.40;100.00
2681;BME280;1350;42.134;24.708;2024-02-26T00:57:29;98961.59;;;10.51;100.00
2681;BME280;1350;42.134;24.708;2024-02-26T00:59:56;98955.84;;;10.30;100.00
2681;BME280;1350;42.134;24.708;2024-02-26T01:02:26;98946.94;;;10.31;100.00
2681;BME280;1350;42.134;24.708;2024-02-26T01:04:53;98977.22;;;10.41;100.00
2681;BME280;1350;42.134;24.708;2024-02-26T01:07:19;98995.75;;;10.41;100.00
2681;BME280;1350;42.134;24.708;2024-02-26T01:09:46;98987.25;;;10.50;100.00
2681;BME280;1350;42.134;24.708;2024-02-26T01:12:13;98958.00;;;10.66;100.00
2681;BME280;1350;42.134;24.708;2024-02-26T01:14:41;98950.13;;;10.78;100.00
2681;BME280;1350;42.134;24.708;2024-02-26T01:17:08;98970.56;;;10.90;100.00
2681;BME280;1350;42.134;24.708;2024-02-26T01:19:38;98982.13;;;10.89;100.00
2681;BME280;1350;42.134;24.708;2024-02-26T01:22:05;98973.78;;;10.81;100.00
2681;BME280;1350;42.134;24.708;2024-02-26T01:24:32;98961.47;;;10.94;100.00
2681;BME280;1350;42.134;24.708;2024-02-26T01:26:58;98972.19;;;10.93;100.00
2681;BME280;1350;42.134;24.708;2024-02-26T01:29:25;98985.06;;;10.99;100.00
2681;BME280;1350;42.134;24.708;2024-02-26T01:31:52;98988.91;;;11.07;100.00
2681;BME280;1350;42.134;24.708;2024-02-26T01:34:20;98979.72;;;11.13;100.00
2681;BME280;1350;42.134;24.708;2024-02-26T01:36:48;98984.38;;;11.09;100.00
2681;BME280;1350;42.134;24.708;2024-02-26T01:39:15;98985.81;;;11.01;100.00
2681;BME280;1350;42.134;24.708;2024-02-26T01:41:43;98988.38;;;11.02;100.00
2681;BME280;1350;42.134;24.708;2024-02-26T01:44:11;98995.75;;;10.97;100.00
2681;BME280;1350;42.134;24.708;2024-02-26T01:46:39;98990.88;;;10.77;100.00
2681;BME280;1350;42.134;24.708;2024-02-26T01:49:06;98982.53;;;10.83;100.00
2681;BME280;1350;42.134;24.708;2024-02-26T01:51:36;98986.97;;;10.69;100.00
2681;BME280;1350;42.134;24.708;2024-02-26T01:54:04;98994.63;;;10.73;100.00
2681;BME280;1350;42.134;24.708;2024-02-26T01:56:33;98984.13;;;10.72;100.00
2681;BME280;1350;42.134;24.708;2024-02-26T01:59:02;98983.97;;;10.75;100.00
2681;BME280;1350;42.134;24.708;2024-02-26T02:01:29;98983.78;;;10.78;100.00
2681;BME280;1350;42.134;24.708;2024-02-26T02:03:58;98987.25;;;10.64;100.00
2681;BME280;1350;42.134;24.708;2024-02-26T02:06:26;98979.19;;;10.66;100.00
2681;BME280;1350;42.134;24.708;2024-02-26T02:08:54;98975.16;;;10.60;100.00
2681;BME280;1350;42.134;24.708;2024-02-26T02:11:23;98970.63;;;10.62;100.00
2681;BME280;1350;42.134;24.708;2024-02-26T02:13:50;98966.34;;;10.60;100.00
2681;BME280;1350;42.134;24.708;2024-02-26T02:16:17;98977.91;;;10.59;100.00
2681;BME280;1350;42.134;24.708;2024-02-26T02:18:44;98966.72;;;10.68;100.00
2681;BME280;1350;42.134;24.708;2024-02-26T02:21:13;98971.81;;;10.85;100.00
2681;BME280;1350;42.134;24.708;2024-02-26T02:23:40;98967.38;;;10.71;100.00
2681;BME280;1350;42.134;24.708;2024-02-26T02:26:11;98963.97;;;10.69;100.00
2681;BME280;1350;42.134;24.708;2024-02-26T02:28:39;98963.59;;;10.61;100.00
2681;BME280;1350;42.134;24.708;2024-02-26T02:31:07;98968.31;;;10.70;100.00
2681;BME280;1350;42.134;24.708;2024-02-26T02:33:34;98977.59;;;10.77;100.00
2681;BME280;1350;42.134;24.708;2024-02-26T02:36:02;98976.47;;;10.67;100.00
2681;BME280;1350;42.134;24.708;2024-02-26T02:38:30;98977.59;;;10.49;100.00
2681;BME280;1350;42.134;24.708;2024-02-26T02:40:59;98980.63;;;10.43;100.00
2681;BME280;1350;42.134;24.708;2024-02-26T02:43:26;98971.00;;;10.42;100.00
2681;BME280;1350;42.134;24.708;2024-02-26T02:45:53;98976.28;;;10.42;100.00
2681;BME280;1350;42.134;24.708;2024-02-26T02:48:20;98988.41;;;10.46;100.00
2681;BME280;1350;42.134;24.708;2024-02-26T02:50:47;98986.88;;;10.42;100.00
2681;BME280;1350;42.134;24.708;2024-02-26T02:53:14;98984.78;;;10.47;100.00
2681;BME280;1350;42.134;24.708;2024-02-26T02:55:43;98981.03;;;10.51;100.00
2681;BME280;1350;42.134;24.708;2024-02-26T02:58:10;98977.88;;;10.45;100.00
2681;BME280;1350;42.134;24.708;2024-02-26T03:00:37;98983.75;;;10.36;100.00
2681;BME280;1350;42.134;24.708;2024-02-26T03:03:04;98989.22;;;10.18;100.00
2681;BME280;1350;42.134;24.708;2024-02-26T03:05:31;98990.47;;;10.41;100.00
2681;BME280;1350;42.134;24.708;2024-02-26T03:07:58;98986.13;;;10.40;100.00
2681;BME280;1350;42.134;24.708;2024-02-26T03:10:25;98990.19;;;10.46;100.00
2681;BME280;1350;42.134;24.708;2024-02-26T03:12:54;98977.97;;;10.43;100.00
2681;BME280;1350;42.134;24.708;2024-02-26T03:15:21;98979.50;;;10.47;100.00
2681;BME280;1350;42.134;24.708;2024-02-26T03:17:48;98983.00;;;10.62;100.00
2681;BME280;1350;42.134;24.708;2024-02-26T03:20:15;98991.25;;;10.71;100.00
2681;BME280;1350;42.134;24.708;2024-02-26T03:22:44;98993.81;;;10.73;100.00
2681;BME280;1350;42.134;24.708;2024-02-26T03:25:12;98991.13;;;10.45;100.00
2681;BME280;1350;42.134;24.708;2024-02-26T03:27:39;98996.53;;;10.57;100.00
2681;BME280;1350;42.134;24.708;2024-02-26T03:30:09;98983.78;;;10.64;100.00
2681;BME280;1350;42.134;24.708;2024-02-26T03:32:35;98983.66;;;10.51;100.00
2681;BME280;1350;42.134;24.708;2024-02-26T03:35:03;98984.53;;;10.52;100.00
2681;BME280;1350;42.134;24.708;2024-02-26T03:37:29;98996.72;;;10.54;100.00
2681;BME280;1350;42.134;24.708;2024-02-26T03:39:56;99003.44;;;10.46;100.00
2681;BME280;1350;42.134;24.708;2024-02-26T03:42:23;98995.84;;;10.40;100.00
2681;BME280;1350;42.134;24.708;2024-02-26T03:44:50;98987.00;;;10.55;100.00
2681;BME280;1350;42.134;24.708;2024-02-26T03:47:19;98983.09;;;10.60;100.00
2681;BME280;1350;42.134;24.708;2024-02-26T03:49:46;98988.59;;;10.57;100.00
2681;BME280;1350;42.134;24.708;2024-02-26T03:52:13;98984.97;;;10.58;100.00
2681;BME280;1350;42.134;24.708;2024-02-26T03:54:40;98995.03;;;10.53;100.00
2681;BME280;1350;42.134;24.708;2024-02-26T03:57:07;98991.16;;;10.59;100.00
2681;BME280;1350;42.134;24.708;2024-02-26T03:59:34;98993.91;;;10.57;100.00
2681;BME280;1350;42.134;24.708;2024-02-26T04:02:01;98993.59;;;10.48;100.00
2681;BME280;1350;42.134;24.708;2024-02-26T04:04:29;99003.06;;;10.66;100.00
2681;BME280;1350;42.134;24.708;2024-02-26T04:06:56;99007.63;;;10.50;100.00
2681;BME280;1350;42.134;24.708;2024-02-26T04:09:25;99014.59;;;10.37;100.00
2681;BME280;1350;42.134;24.708;2024-02-26T04:11:52;99008.66;;;10.33;100.00
2681;BME280;1350;42.134;24.708;2024-02-26T04:14:19;99001.53;;;10.34;100.00
2681;BME280;1350;42.134;24.708;2024-02-26T04:16:48;98995.28;;;10.20;100.00
2681;BME280;1350;42.134;24.708;2024-02-26T04:19:17;99002.00;;;10.26;100.00
2681;BME280;1350;42.134;24.708;2024-02-26T04:21:46;98999.44;;;10.24;100.00
2681;BME280;1350;42.134;24.708;2024-02-26T04:24:13;99000.31;;;10.25;100.00
2681;BME280;1350;42.134;24.708;2024-02-26T04:26:40;98988.19;;;10.35;100.00
2681;BME280;1350;42.134;24.708;2024-02-26T04:29:06;98988.78;;;10.54;100.00
2681;BME280;1350;42.134;24.708;2024-02-26T04:31:34;99000.59;;;10.35;100.00
2681;BME280;1350;42.134;24.708;2024-02-26T04:34:00;98990.47;;;10.41;100.00
2681;BME280;1350;42.134;24.708;2024-02-26T04:36:27;99000.97;;;10.29;100.00
2681;BME280;1350;42.134;24.708;2024-02-26T04:38:56;98998.44;;;10.27;100.00
2681;BME280;1350;42.134;24.708;2024-02-26T04:41:23;99001.16;;;10.40;100.00
2681;BME280;1350;42.134;24.708;2024-02-26T04:43:50;99007.41;;;10.39;100.00
2681;BME280;1350;42.134;24.708;2024-02-26T04:46:17;99012.53;;;10.42;100.00
2681;BME280;1350;42.134;24.708;2024-02-26T04:48:45;99012.50;;;10.27;100.00
2681;BME280;1350;42.134;24.708;2024-02-26T04:51:12;99010.25;;;10.36;100.00
2681;BME280;1350;42.134;24.708;2024-02-26T04:53:39;99004.09;;;10.35;100.00
2681;BME280;1350;42.134;24.708;2024-02-26T04:56:07;99002.09;;;10.24;100.00
2681;BME280;1350;42.134;24.708;2024-02-26T04:58:34;99000.31;;;10.25;100.00
2681;BME280;1350;42.134;24.708;2024-02-26T05:01:01;99007.88;;;10.31;100.00
2681;BME280;1350;42.134;24.708;2024-02-26T05:03:29;99011.13;;;10.36;100.00
2681;BME280;1350;42.134;24.708;2024-02-26T05:05:55;99015.09;;;10.43;100.00
2681;BME280;1350;42.134;24.708;2024-02-26T05:08:23;99012.91;;;10.36;100.00
2681;BME280;1350;42.134;24.708;2024-02-26T05:10:50;99012.41;;;10.29;100.00
2681;BME280;1350;42.134;24.708;2024-02-26T05:13:18;99017.34;;;10.49;100.00
2681;BME280;1350;42.134;24.708;2024-02-26T05:15:45;99005.06;;;10.62;100.00
2681;BME280;1350;42.134;24.708;2024-02-26T05:18:14;99008.28;;;10.67;100.00
2681;BME280;1350;42.134;24.708;2024-02-26T05:20:41;99012.66;;;10.68;100.00
2681;BME280;1350;42.134;24.708;2024-02-26T05:23:09;99023.63;;;10.76;100.00
2681;BME280;1350;42.134;24.708;2024-02-26T05:25:36;99020.59;;;10.82;100.00
2681;BME280;1350;42.134;24.708;2024-02-26T05:28:04;99017.56;;;10.88;100.00
2681;BME280;1350;42.134;24.708;2024-02-26T05:30:32;99021.44;;;10.83;100.00
2681;BME280;1350;42.134;24.708;2024-02-26T05:32:59;99027.59;;;10.69;100.00
2681;BME280;1350;42.134;24.708;2024-02-26T05:35:26;99027.88;;;10.65;100.00
2681;BME280;1350;42.134;24.708;2024-02-26T05:37:53;99029.75;;;10.63;100.00
2681;BME280;1350;42.134;24.708;2024-02-26T05:40:20;99034.59;;;10.70;100.00
2681;BME280;1350;42.134;24.708;2024-02-26T05:42:47;99030.34;;;10.82;100.00
2681;BME280;1350;42.134;24.708;2024-02-26T05:45:14;99028.06;;;10.76;100.00
2681;BME280;1350;42.134;24.708;2024-02-26T05:47:43;99028.47;;;10.84;100.00
2681;BME280;1350;42.134;24.708;2024-02-26T05:50:10;99027.78;;;10.94;100.00
2681;BME280;1350;42.134;24.708;2024-02-26T05:52:38;99029.47;;;10.95;100.00
2681;BME280;1350;42.134;24.708;2024-02-26T05:55:05;99045.09;;;11.00;100.00
2681;BME280;1350;42.134;24.708;2024-02-26T05:57:33;99036.97;;;10.89;100.00
2681;BME280;1350;42.134;24.708;2024-02-26T06:00:01;99035.66;;;10.96;100.00
2681;BME280;1350;42.134;24.708;2024-02-26T06:02:29;99045.19;;;10.84;100.00
2681;BME280;1350;42.134;24.708;2024-02-26T06:04:58;99060.53;;;10.93;100.00
2681;BME280;1350;42.134;24.708;2024-02-26T06:07:25;99061.13;;;10.98;100.00
2681;BME280;1350;42.134;24.708;2024-02-26T06:09:52;99061.13;;;10.98;100.00
2681;BME280;1350;42.134;24.708;2024-02-26T06:12:19;99062.63;;;11.16;100.00
2681;BME280;1350;42.134;24.708;2024-02-26T06:14:46;99064.16;;;10.92;100.00
2681;BME280;1350;42.134;24.708;2024-02-26T06:17:13;99068.50;;;11.07;100.00
2681;BME280;1350;42.134;24.708;2024-02-26T06:19:40;99071.53;;;11.15;100.00
2681;BME280;1350;42.134;24.708;2024-02-26T06:22:08;99065.44;;;11.27;100.00
2681;BME280;1350;42.134;24.708;2024-02-26T06:24:35;99065.06;;;11.19;100.00
2681;BME280;1350;42.134;24.708;2024-02-26T06:27:02;99073.69;;;11.23;100.00
2681;BME280;1350;42.134;24.708;2024-02-26T06:29:29;99075.53;;;11.22;100.00
2681;BME280;1350;42.134;24.708;2024-02-26T06:31:56;99073.13;;;11.32;100.00
2681;BME280;1350;42.134;24.708;2024-02-26T06:34:23;99073.88;;;11.34;100.00
2681;BME280;1350;42.134;24.708;2024-02-26T06:36:50;99080.06;;;11.34;100.00
2681;BME280;1350;42.134;24.708;2024-02-26T06:39:19;99088.13;;;11.19;100.00
2681;BME280;1350;42.134;24.708;2024-02-26T06:41:46;99079.00;;;11.23;100.00
2681;BME280;1350;42.134;24.708;2024-02-26T06:44:13;99078.78;;;11.40;100.00
2681;BME280;1350;42.134;24.708;2024-02-26T06:46:40;99091.06;;;11.28;100.00
2681;BME280;1350;42.134;24.708;2024-02-26T06:49:07;99090.78;;;11.19;100.00
2681;BME280;1350;42.134;24.708;2024-02-26T06:51:34;99086.31;;;10.91;100.00
2681;BME280;1350;42.134;24.708;2024-02-26T06:54:01;99081.03;;;11.05;100.00
2681;BME280;1350;42.134;24.708;2024-02-26T06:56:29;99088.59;;;11.11;100.00
2681;BME280;1350;42.134;24.708;2024-02-26T06:58:56;99096.47;;;11.27;100.00
2681;BME280;1350;42.134;24.708;2024-02-26T07:01:23;99090.94;;;11.44;100.00
2681;BME280;1350;42.134;24.708;2024-02-26T07:03:50;99096.78;;;11.49;100.00
2681;BME280;1350;42.134;24.708;2024-02-26T07:06:17;99099.16;;;11.39;100.00
2681;BME280;1350;42.134;24.708;2024-02-26T07:08:44;99100.69;;;11.43;100.00
2681;BME280;1350;42.134;24.708;2024-02-26T07:11:11;99097.19;;;11.43;100.00
2681;BME280;1350;42.134;24.708;2024-02-26T07:13:40;99099.94;;;11.41;100.00
2681;BME280;1350;42.134;24.708;2024-02-26T07:16:09;99095.00;;;11.49;100.00
2681;BME280;1350;42.134;24.708;2024-02-26T07:18:35;99093.84;;;11.53;100.00
2681;BME280;1350;42.134;24.708;2024-02-26T07:21:03;99092.63;;;11.45;100.00
2681;BME280;1350;42.134;24.708;2024-02-26T07:23:30;99098.50;;;11.64;100.00
2681;BME280;1350;42.134;24.708;2024-02-26T07:25:56;99104.66;;;11.64;100.00
2681;BME280;1350;42.134;24.708;2024-02-26T07:28:24;99103.34;;;11.71;100.00
2681;BME280;1350;42.134;24.708;2024-02-26T07:30:52;99106.00;;;11.71;100.00
2681;BME280;1350;42.134;24.708;2024-02-26T07:33:19;99113.84;;;11.73;100.00
2681;BME280;1350;42.134;24.708;2024-02-26T07:35:46;99109.00;;;11.65;100.00
2681;BME280;1350;42.134;24.708;2024-02-26T07:38:13;99102.00;;;11.64;100.00
2681;BME280;1350;42.134;24.708;2024-02-26T07:40:40;99107.69;;;11.72;100.00
2681;BME280;1350;42.134;24.708;2024-02-26T07:43:08;99104.47;;;11.67;100.00
2681;BME280;1350;42.134;24.708;2024-02-26T07:45:35;99097.75;;;11.88;100.00
2681;BME280;1350;42.134;24.708;2024-02-26T07:48:04;99094.81;;;11.93;100.00
2681;BME280;1350;42.134;24.708;2024-02-26T07:50:31;99089.31;;;11.96;100.00
2681;BME280;1350;42.134;24.708;2024-02-26T07:52:58;99090.84;;;12.13;100.00
2681;BME280;1350;42.134;24.708;2024-02-26T07:55:24;99092.56;;;12.26;100.00
2681;BME280;1350;42.134;24.708;2024-02-26T07:57:51;99091.50;;;12.29;100.00
2681;BME280;1350;42.134;24.708;2024-02-26T08:00:19;99094.09;;;12.43;100.00
2681;BME280;1350;42.134;24.708;2024-02-26T08:02:46;99092.75;;;12.62;100.00
2681;BME280;1350;42.134;24.708;2024-02-26T08:05:15;99087.97;;;12.80;100.00
2681;BME280;1350;42.134;24.708;2024-02-26T08:07:42;99084.97;;;12.72;100.00
2681;BME280;1350;42.134;24.708;2024-02-26T08:10:09;99092.25;;;12.70;100.00
2681;BME280;1350;42.134;24.708;2024-02-26T08:12:36;99093.50;;;12.77;100.00
2681;BME280;1350;42.134;24.708;2024-02-26T08:15:04;99093.50;;;12.77;100.00
2681;BME280;1350;42.134;24.708;2024-02-26T08:17:31;99089.88;;;12.78;100.00
2681;BME280;1350;42.134;24.708;2024-02-26T08:19:59;99097.53;;;12.95;100.00
2681;BME280;1350;42.134;24.708;2024-02-26T08:22:27;99095.09;;;12.79;100.00
2681;BME280;1350;42.134;24.708;2024-02-26T08:24:54;99104.59;;;12.96;100.00
2681;BME280;1350;42.134;24.708;2024-02-26T08:27:21;99086.59;;;12.87;100.00
2681;BME280;1350;42.134;24.708;2024-02-26T08:29:48;99093.19;;;12.94;100.00
2681;BME280;1350;42.134;24.708;2024-02-26T08:32:14;99096.38;;;12.99;100.00
2681;BME280;1350;42.134;24.708;2024-02-26T08:34:42;99098.00;;;13.14;100.00
2681;BME280;1350;42.134;24.708;2024-02-26T08:37:09;99101.41;;;13.16;100.00
2681;BME280;1350;42.134;24.708;2024-02-26T08:39:37;99098.00;;;13.26;100.00
2681;BME280;1350;42.134;24.708;2024-02-26T08:42:05;99101.91;;;13.21;100.00
2681;BME280;1350;42.134;24.708;2024-02-26T08:44:32;99097.34;;;13.35;100.00
2681;BME280;1350;42.134;24.708;2024-02-26T08:46:59;99093.91;;;13.46;100.00
2681;BME280;1350;42.134;24.708;2024-02-26T08:49:26;99091.88;;;13.49;100.00
2681;BME280;1350;42.134;24.708;2024-02-26T08:51:53;99093.69;;;13.49;100.00
2681;BME280;1350;42.134;24.708;2024-02-26T08:54:20;99090.25;;;13.59;100.00
2681;BME280;1350;42.134;24.708;2024-02-26T08:56:48;99091.09;;;13.60;100.00
2681;BME280;1350;42.134;24.708;2024-02-26T08:59:15;99083.41;;;13.68;100.00
2681;BME280;1350;42.134;24.708;2024-02-26T09:01:47;99094.84;;;13.57;100.00
2681;BME280;1350;42.134;24.708;2024-02-26T09:04:14;99089.41;;;13.59;100.00
2681;BME280;1350;42.134;24.708;2024-02-26T09:06:41;99092.97;;;13.71;100.00
2681;BME280;1350;42.134;24.708;2024-02-26T09:09:08;99082.25;;;13.96;100.00
2681;BME280;1350;42.134;24.708;2024-02-26T09:11:36;99084.63;;;14.11;100.00
2681;BME280;1350;42.134;24.708;2024-02-26T09:14:05;99086.81;;;14.17;100.00
2681;BME280;1350;42.134;24.708;2024-02-26T09:16:32;99093.78;;;14.07;100.00
2681;BME280;1350;42.134;24.708;2024-02-26T09:18:58;99083.53;;;14.14;100.00
2681;BME280;1350;42.134;24.708;2024-02-26T09:21:25;99086.19;;;14.14;100.00
2681;BME280;1350;42.134;24.708;2024-02-26T09:23:56;99091.53;;;14.14;100.00
2681;BME280;1350;42.134;24.708;2024-02-26T09:26:22;99081.50;;;13.94;100.00
2681;BME280;1350;42.134;24.708;2024-02-26T09:28:49;99081.38;;;13.95;100.00
2681;BME280;1350;42.134;24.708;2024-02-26T09:31:18;99081.59;;;13.92;100.00
2681;BME280;1350;42.134;24.708;2024-02-26T09:33:46;99081.09;;;14.11;100.00
2681;BME280;1350;42.134;24.708;2024-02-26T09:36:13;99083.50;;;14.26;100.00
2681;BME280;1350;42.134;24.708;2024-02-26T09:38:39;99087.03;;;14.27;100.00
2681;BME280;1350;42.134;24.708;2024-02-26T09:41:06;99081.81;;;14.25;100.00
2681;BME280;1350;42.134;24.708;2024-02-26T09:43:43;99081.59;;;14.39;100.00
2681;BME280;1350;42.134;24.708;2024-02-26T09:46:11;99075.00;;;14.56;100.00
2681;BME280;1350;42.134;24.708;2024-02-26T09:48:40;99073.22;;;14.78;100.00
2681;BME280;1350;42.134;24.708;2024-02-26T09:51:10;99073.22;;;14.78;100.00
2681;BME280;1350;42.134;24.708;2024-02-26T09:53:38;99063.75;;;14.85;100.00
2681;BME280;1350;42.134;24.708;2024-02-26T09:56:08;99071.88;;;14.84;100.00
2681;BME280;1350;42.134;24.708;2024-02-26T09:58:36;99067.16;;;14.87;100.00
2681;BME280;1350;42.134;24.708;2024-02-26T10:01:07;99063.78;;;14.96;100.00
2681;BME280;1350;42.134;24.708;2024-02-26T10:03:40;99060.25;;;15.07;100.00
2681;BME280;1350;42.134;24.708;2024-02-26T10:06:09;99055.78;;;15.30;100.00
2681;BME280;1350;42.134;24.708;2024-02-26T10:08:36;99044.97;;;15.31;100.00
2681;BME280;1350;42.134;24.708;2024-02-26T10:11:05;99041.72;;;15.39;100.00
2681;BME280;1350;42.134;24.708;2024-02-26T10:13:32;99043.00;;;15.55;100.00
2681;BME280;1350;42.134;24.708;2024-02-26T10:15:59;99038.38;;;15.68;100.00
2681;BME280;1350;42.134;24.708;2024-02-26T10:18:46;99031.63;;;15.96;100.00
2681;BME280;1350;42.134;24.708;2024-02-26T10:21:13;99021.59;;;16.09;100.00
2681;BME280;1350;42.134;24.708;2024-02-26T10:23:42;99026.78;;;15.90;98.79
2681;BME280;1350;42.134;24.708;2024-02-26T10:26:10;99021.94;;;16.36;96.84
2681;BME280;1350;42.134;24.708;2024-02-26T10:28:37;99011.81;;;16.39;95.09
2681;BME280;1350;42.134;24.708;2024-02-26T10:31:05;99015.19;;;16.52;93.90
2681;BME280;1350;42.134;24.708;2024-02-26T10:33:33;99007.09;;;16.63;93.14
2681;BME280;1350;42.134;24.708;2024-02-26T10:36:03;99013.41;;;16.42;90.81
2681;BME280;1350;42.134;24.708;2024-02-26T10:38:30;99010.06;;;16.29;90.80
2681;BME280;1350;42.134;24.708;2024-02-26T10:40:58;99006.66;;;16.27;91.04
2681;BME280;1350;42.134;24.708;2024-02-26T10:43:25;98997.94;;;16.45;90.29
2681;BME280;1350;42.134;24.708;2024-02-26T10:45:54;98999.22;;;16.71;88.92
2681;BME280;1350;42.134;24.708;2024-02-26T10:48:21;98991.16;;;16.92;87.77
2681;BME280;1350;42.134;24.708;2024-02-26T10:50:49;98996.75;;;16.79;87.58
2681;BME280;1350;42.134;24.708;2024-02-26T10:53:20;98997.25;;;17.04;86.31
2681;BME280;1350;42.134;24.708;2024-02-26T10:55:48;98993.97;;;16.91;86.21
2681;BME280;1350;42.134;24.708;2024-02-26T10:58:17;98991.34;;;17.00;86.04
2681;BME280;1350;42.134;24.708;2024-02-26T11:00:45;98980.19;;;16.95;84.60
2681;BME280;1350;42.134;24.708;2024-02-26T11:03:14;98983.38;;;17.19;83.14
2681;BME280;1350;42.134;24.708;2024-02-26T11:05:43;98983.34;;;17.10;83.84
2681;BME280;1350;42.134;24.708;2024-02-26T11:08:11;98970.59;;;16.93;85.19
2681;BME280;1350;42.134;24.708;2024-02-26T11:10:40;98966.22;;;17.31;83.45
2681;BME280;1350;42.134;24.708;2024-02-26T11:13:09;98970.03;;;17.38;82.06
2681;BME280;1350;42.134;24.708;2024-02-26T11:15:39;98963.19;;;17.15;81.94
2681;BME280;1350;42.134;24.708;2024-02-26T11:18:07;98970.16;;;16.88;82.93
2681;BME280;1350;42.134;24.708;2024-02-26T11:20:38;98963.41;;;16.63;85.89
2681;BME280;1350;42.134;24.708;2024-02-26T11:23:07;98965.75;;;16.77;84.34
2681;BME280;1350;42.134;24.708;2024-02-26T11:25:35;98961.78;;;17.11;81.60
2681;BME280;1350;42.134;24.708;2024-02-26T11:28:06;98962.84;;;17.39;80.83
2681;BME280;1350;42.134;24.708;2024-02-26T11:30:39;98951.91;;;17.61;78.68
2681;BME280;1350;42.134;24.708;2024-02-26T11:33:08;98951.28;;;17.38;75.11
2681;BME280;1350;42.134;24.708;2024-02-26T11:35:37;98939.66;;;17.19;75.94
2681;BME280;1350;42.134;24.708;2024-02-26T11:38:05;98945.28;;;17.55;74.46
2681;BME280;1350;42.134;24.708;2024-02-26T11:40:33;98935.19;;;17.38;73.00
2681;BME280;1350;42.134;24.708;2024-02-26T11:43:06;98938.06;;;16.97;76.33
2681;BME280;1350;42.134;24.708;2024-02-26T11:45:51;98934.28;;;17.09;77.31
2681;BME280;1350;42.134;24.708;2024-02-26T11:48:21;98932.22;;;17.32;75.89
2681;BME280;1350;42.134;24.708;2024-02-26T11:50:49;98933.94;;;17.33;74.29
2681;BME280;1350;42.134;24.708;2024-02-26T11:53:24;98920.84;;;17.58;72.99
2681;BME280;1350;42.134;24.708;2024-02-26T11:56:13;98927.72;;;17.42;73.91
2681;BME280;1350;42.134;24.708;2024-02-26T11:58:48;98919.84;;;17.50;73.75
2681;BME280;1350;42.134;24.708;2024-02-26T12:01:41;98920.97;;;17.47;71.71
2681;BME280;1350;42.134;24.708;2024-02-26T12:04:13;98922.00;;;17.56;70.74
2681;BME280;1350;42.134;24.708;2024-02-26T12:06:46;98918.84;;;16.92;74.14
2681;BME280;1350;42.134;24.708;2024-02-26T12:09:13;98929.72;;;16.91;74.68
2681;BME280;1350;42.134;24.708;2024-02-26T12:11:56;98920.59;;;16.22;79.04
2681;BME280;1350;42.134;24.708;2024-02-26T12:14:26;98918.84;;;16.52;80.50
2681;BME280;1350;42.134;24.708;2024-02-26T12:16:55;98918.94;;;16.81;77.69
2681;BME280;1350;42.134;24.708;2024-02-26T12:19:23;98915.41;;;16.80;77.96
2681;BME280;1350;42.134;24.708;2024-02-26T12:21:52;98909.72;;;17.04;76.12
2681;BME280;1350;42.134;24.708;2024-02-26T12:24:20;98904.88;;;17.28;78.01
2681;BME280;1350;42.134;24.708;2024-02-26T12:26:47;98911.97;;;17.58;74.73
2681;BME280;1350;42.134;24.708;2024-02-26T12:29:14;98905.75;;;17.67;72.84
2681;BME280;1350;42.134;24.708;2024-02-26T12:31:43;98908.00;;;17.81;71.12
2681;BME280;1350;42.134;24.708;2024-02-26T12:34:10;98911.97;;;17.86;70.18
2681;BME280;1350;42.134;24.708;2024-02-26T12:36:37;98918.88;;;17.98;69.97
2681;BME280;1350;42.134;24.708;2024-02-26T12:39:06;98893.16;;;18.05;69.43
2681;BME280;1350;42.134;24.708;2024-02-26T12:41:35;98899.38;;;18.15;68.88
2681;BME280;1350;42.134;24.708;2024-02-26T12:44:02;98897.41;;;18.08;68.88
2681;BME280;1350;42.134;24.708;2024-02-26T12:46:29;98894.28;;;18.12;69.54
2681;BME280;1350;42.134;24.708;2024-02-26T12:48:58;98894.66;;;18.27;69.52
2681;BME280;1350;42.134;24.708;2024-02-26T12:51:26;98896.38;;;18.28;68.28
2681;BME280;1350;42.134;24.708;2024-02-26T12:53:55;98894.50;;;18.57;67.75
2681;BME280;1350;42.134;24.708;2024-02-26T12:56:23;98891.03;;;18.28;67.62
2681;BME280;1350;42.134;24.708;2024-02-26T12:58:50;98891.00;;;18.37;67.35
2681;BME280;1350;42.134;24.708;2024-02-26T13:01:23;98891.13;;;18.45;66.94
2681;BME280;1350;42.134;24.708;2024-02-26T13:03:54;98889.56;;;18.53;66.96
2681;BME280;1350;42.134;24.708;2024-02-26T13:06:23;98895.94;;;18.42;66.85